createdAt,value
2022-11-15T00:01:29.520Z,14.33
2022-11-15T00:03:58.121Z,13.00
2022-11-15T00:06:26.728Z,19.53
2022-11-15T00:08:55.330Z,13.07
2022-11-15T00:11:23.910Z,14.37
2022-11-15T00:13:52.623Z,12.57
2022-11-15T00:16:21.215Z,11.90
2022-11-15T00:18:51.209Z,9.57
2022-11-15T00:21:20.056Z,11.93
2022-11-15T00:23:49.028Z,13.03
2022-11-15T00:26:17.631Z,12.63
2022-11-15T00:28:46.269Z,14.50
2022-11-15T00:31:16.000Z,13.47
2022-11-15T00:33:46.144Z,11.90
2022-11-15T00:36:16.090Z,18.90
2022-11-15T00:38:44.695Z,17.23
2022-11-15T00:41:13.298Z,12.77
2022-11-15T00:43:44.381Z,12.30
2022-11-15T00:46:13.078Z,11.73
2022-11-15T00:48:41.809Z,18.63
2022-11-15T00:51:10.380Z,10.50
2022-11-15T00:53:40.312Z,20.77
2022-11-15T00:56:09.215Z,12.17
2022-11-15T00:58:37.838Z,16.33
2022-11-15T01:01:10.895Z,15.93
2022-11-15T01:03:40.349Z,11.07
2022-11-15T01:06:12.620Z,15.33
2022-11-15T01:08:42.932Z,15.63
2022-11-15T01:11:13.077Z,9.70
2022-11-15T01:13:42.111Z,11.20
2022-11-15T01:16:12.155Z,12.83
2022-11-15T01:18:40.783Z,11.30
2022-11-15T01:21:10.528Z,14.23
2022-11-15T01:23:39.204Z,11.40
2022-11-15T01:26:12.101Z,11.70
2022-11-15T01:28:41.817Z,11.30
2022-11-15T01:31:13.805Z,12.83
2022-11-15T01:33:42.781Z,13.60
2022-11-15T01:36:14.043Z,13.20
2022-11-15T01:38:42.669Z,13.33
2022-11-15T01:41:19.163Z,15.30
2022-11-15T01:43:50.581Z,14.40
2022-11-15T01:46:31.442Z,12.30
2022-11-15T01:49:03.001Z,10.23
2022-11-15T01:51:34.217Z,17.67
2022-11-15T01:54:05.000Z,12.90
2022-11-15T01:56:39.775Z,9.57
2022-11-15T01:59:09.822Z,14.60
2022-11-15T02:01:39.070Z,15.50
2022-11-15T02:04:12.165Z,11.80
2022-11-15T02:06:41.252Z,10.30
2022-11-15T02:09:09.878Z,11.10
2022-11-15T02:11:39.886Z,19.70
2022-11-15T02:14:08.936Z,11.40
2022-11-15T02:16:46.626Z,10.10
2022-11-15T02:19:30.985Z,14.97
2022-11-15T02:22:06.131Z,11.97
2022-11-15T02:25:16.516Z,9.43
2022-11-15T02:28:12.055Z,15.50
2022-11-15T02:30:43.925Z,9.30
2022-11-15T02:33:20.392Z,12.30
2022-11-15T02:35:54.678Z,14.60
2022-11-15T02:38:31.597Z,10.40
2022-11-15T02:41:03.188Z,11.97
2022-11-15T02:43:52.437Z,12.60
2022-11-15T02:46:44.760Z,11.33
2022-11-15T02:49:14.321Z,8.37
2022-11-15T02:51:45.655Z,11.40
2022-11-15T02:54:16.605Z,15.67
2022-11-15T02:56:45.521Z,15.43
2022-11-15T02:59:25.885Z,10.43
2022-11-15T03:02:08.144Z,12.30
2022-11-15T03:04:41.771Z,14.70
2022-11-15T03:07:16.298Z,16.17
2022-11-15T03:09:47.852Z,11.60
2022-11-15T03:12:19.990Z,13.80
2022-11-15T03:14:54.973Z,12.80
2022-11-15T03:17:26.299Z,13.40
2022-11-15T03:19:56.465Z,10.93
2022-11-15T03:22:26.911Z,11.30
2022-11-15T03:24:56.928Z,12.43
2022-11-15T03:27:28.444Z,12.23
2022-11-15T03:30:00.079Z,11.90
2022-11-15T03:32:31.386Z,12.30
2022-11-15T03:35:02.476Z,11.90
2022-11-15T03:37:35.324Z,10.43
2022-11-15T03:40:05.426Z,14.53
2022-11-15T03:42:37.465Z,15.53
2022-11-15T03:45:13.074Z,11.37
2022-11-15T03:47:46.069Z,12.50
2022-11-15T03:50:17.779Z,10.70
2022-11-15T03:52:47.389Z,13.43
2022-11-15T03:55:17.870Z,10.00
2022-11-15T03:57:47.065Z,13.73
2022-11-15T04:00:16.348Z,9.67
2022-11-15T04:02:46.594Z,10.97
2022-11-15T04:05:15.256Z,14.10
2022-11-15T04:07:43.840Z,16.33
2022-11-15T04:10:13.486Z,12.70
2022-11-15T04:12:44.263Z,15.20
2022-11-15T04:15:15.452Z,12.77
2022-11-15T04:17:46.985Z,11.37
2022-11-15T04:20:34.569Z,13.43
2022-11-15T04:23:22.546Z,10.83
2022-11-15T04:25:52.961Z,11.83
2022-11-15T04:28:21.658Z,13.20
2022-11-15T04:30:50.258Z,12.67
2022-11-15T04:33:20.453Z,14.03
2022-11-15T04:36:09.042Z,10.30
2022-11-15T04:38:38.253Z,12.50
2022-11-15T04:41:06.838Z,13.80
2022-11-15T04:43:35.754Z,10.77
2022-11-15T04:46:04.560Z,13.53
2022-11-15T04:48:34.536Z,9.60
2022-11-15T04:51:03.131Z,14.90
2022-11-15T04:53:32.016Z,12.20
2022-11-15T04:56:00.841Z,12.03
2022-11-15T04:58:29.483Z,11.20
2022-11-15T05:00:58.168Z,11.53
2022-11-15T05:03:44.563Z,8.17
2022-11-15T05:06:14.532Z,12.00
2022-11-15T05:08:43.145Z,11.83
2022-11-15T05:11:11.790Z,10.13
2022-11-15T05:13:40.416Z,10.60
2022-11-15T05:16:09.039Z,12.30
2022-11-15T05:18:37.708Z,10.60
2022-11-15T05:21:07.095Z,13.13
2022-11-15T05:23:37.133Z,16.63
2022-11-15T05:26:09.326Z,12.33
2022-11-15T05:28:38.852Z,9.23
2022-11-15T05:31:09.380Z,18.00
2022-11-15T05:33:40.000Z,7.80
2022-11-15T05:36:14.343Z,12.33
2022-11-15T05:38:44.533Z,10.63
2022-11-15T05:41:14.070Z,12.23
2022-11-15T05:43:43.676Z,13.30
2022-11-15T05:46:12.428Z,12.80
2022-11-15T05:48:42.443Z,14.47
2022-11-15T05:51:11.248Z,8.43
2022-11-15T05:53:39.885Z,14.83
2022-11-15T05:56:11.151Z,13.60
2022-11-15T05:58:39.965Z,11.40
2022-11-15T06:01:08.582Z,11.90
2022-11-15T06:03:37.211Z,9.90
2022-11-15T06:06:06.081Z,12.70
2022-11-15T06:08:34.670Z,12.30
2022-11-15T06:11:07.479Z,9.70
2022-11-15T06:13:37.630Z,12.23
2022-11-15T06:16:07.048Z,11.63
2022-11-15T06:18:36.185Z,13.60
2022-11-15T06:21:04.962Z,10.53
2022-11-15T06:23:35.170Z,14.90
2022-11-15T06:26:04.536Z,14.02
2022-11-15T06:28:34.733Z,11.00
2022-11-15T06:31:12.117Z,15.80
2022-11-15T06:33:41.745Z,13.40
2022-11-15T06:36:17.447Z,17.40
2022-11-15T06:38:46.552Z,12.70
2022-11-15T06:41:15.997Z,17.23
2022-11-15T06:43:44.655Z,9.90
2022-11-15T06:46:14.556Z,17.97
2022-11-15T06:48:43.181Z,18.67
2022-11-15T06:51:11.811Z,13.87
2022-11-15T06:53:40.443Z,12.50
2022-11-15T06:56:10.058Z,14.13
2022-11-15T06:58:38.808Z,12.60
2022-11-15T07:01:09.828Z,11.97
2022-11-15T07:03:42.073Z,10.30
2022-11-15T07:06:11.493Z,9.30
2022-11-15T07:08:40.149Z,11.73
2022-11-15T07:11:09.721Z,10.83
2022-11-15T07:13:38.896Z,10.60
2022-11-15T07:16:09.496Z,8.50
2022-11-15T07:18:40.904Z,16.37
2022-11-15T07:21:11.743Z,12.30
2022-11-15T07:23:41.220Z,24.67
2022-11-15T07:26:10.125Z,12.27
2022-11-15T07:28:38.980Z,16.33
2022-11-15T07:31:08.751Z,12.13
2022-11-15T07:33:38.753Z,11.90
2022-11-15T07:36:08.881Z,11.60
2022-11-15T07:38:42.529Z,12.63
2022-11-15T07:41:11.839Z,13.37
2022-11-15T07:43:40.416Z,15.87
2022-11-15T07:46:10.831Z,14.00
2022-11-15T07:48:45.336Z,12.43
2022-11-15T07:51:15.642Z,15.37
2022-11-15T07:53:44.462Z,12.27
2022-11-15T07:56:13.774Z,14.50
2022-11-15T07:58:43.594Z,20.93
2022-11-15T08:01:12.561Z,9.63
2022-11-15T08:03:42.701Z,9.60
2022-11-15T08:06:11.319Z,12.30
2022-11-15T08:08:39.948Z,14.13
2022-11-15T08:11:08.571Z,13.60
2022-11-15T08:13:37.193Z,9.60
2022-11-15T08:16:07.276Z,13.40
2022-11-15T08:18:36.582Z,15.83
2022-11-15T08:21:06.863Z,8.77
2022-11-15T08:23:35.627Z,7.87
2022-11-15T08:26:05.317Z,8.70
2022-11-15T08:28:34.316Z,12.60
2022-11-15T08:31:03.166Z,12.03
2022-11-15T08:33:32.710Z,9.97
2022-11-15T08:36:02.596Z,13.40
2022-11-15T08:38:33.074Z,10.23
2022-11-15T08:41:04.064Z,10.20
2022-11-15T08:43:32.867Z,14.80
2022-11-15T08:46:01.792Z,13.33
2022-11-15T08:48:31.514Z,8.97
2022-11-15T08:51:00.341Z,10.70
2022-11-15T08:53:29.208Z,10.33
2022-11-15T08:55:59.223Z,14.90
2022-11-15T08:58:27.893Z,11.90
2022-11-15T09:00:57.090Z,24.63
2022-11-15T09:03:25.817Z,12.20
2022-11-15T09:05:56.954Z,10.80
2022-11-15T09:08:46.506Z,10.83
2022-11-15T09:11:17.411Z,18.43
2022-11-15T09:13:46.123Z,11.50
2022-11-15T09:16:16.123Z,12.53
2022-11-15T09:18:44.979Z,8.13
2022-11-15T09:21:13.975Z,10.67
2022-11-15T09:23:42.625Z,10.90
2022-11-15T09:26:11.263Z,12.40
2022-11-15T09:28:42.792Z,10.90
2022-11-15T09:31:11.812Z,12.30
2022-11-15T09:33:40.681Z,18.17
2022-11-15T09:36:10.152Z,19.20
2022-11-15T09:38:38.864Z,9.63
2022-11-15T09:41:31.988Z,8.80
2022-11-15T09:44:12.930Z,8.63
2022-11-15T09:46:47.819Z,8.90
2022-11-15T09:49:17.504Z,19.83
2022-11-15T09:51:51.044Z,8.40
2022-11-15T09:54:52.156Z,10.43
2022-11-15T09:57:19.723Z,11.60
2022-11-15T10:03:09.177Z,13.57
2022-11-15T10:05:40.548Z,9.80
2022-11-15T10:08:21.928Z,17.40
2022-11-15T10:11:05.010Z,13.80
2022-11-15T10:13:43.918Z,11.10
2022-11-15T10:16:47.748Z,12.77
2022-11-15T10:19:26.044Z,11.63
2022-11-15T10:22:02.159Z,9.07
2022-11-15T10:24:34.699Z,12.10
2022-11-15T10:27:03.554Z,16.80
2022-11-15T10:29:32.176Z,11.50
2022-11-15T10:32:00.837Z,10.00
2022-11-15T10:34:30.917Z,10.23
2022-11-15T10:37:01.196Z,9.00
2022-11-15T10:39:30.426Z,10.00
2022-11-15T10:41:59.201Z,10.73
2022-11-15T10:44:29.374Z,10.57
2022-11-15T10:47:26.416Z,13.47
2022-11-15T10:50:02.145Z,8.60
2022-11-15T10:52:32.048Z,7.97
2022-11-15T10:55:05.582Z,7.50
2022-11-15T10:57:36.154Z,8.30
2022-11-15T11:00:07.721Z,10.70
2022-11-15T11:02:38.476Z,10.43
2022-11-15T11:05:35.253Z,9.80
2022-11-15T11:08:25.357Z,11.33
2022-11-15T11:11:01.573Z,9.00
2022-11-15T11:13:32.685Z,8.53
2022-11-15T11:16:21.244Z,7.30
2022-11-15T11:18:56.698Z,6.10
2022-11-15T11:21:35.370Z,9.30
2022-11-15T11:24:12.757Z,10.03
2022-11-15T11:26:44.957Z,9.80
2022-11-15T11:29:25.914Z,8.60
2022-11-15T11:32:01.004Z,9.80
2022-11-15T11:34:38.486Z,9.80
2022-11-15T11:37:16.900Z,7.90
2022-11-15T11:39:54.194Z,10.20
2022-11-15T11:42:29.880Z,9.93
2022-11-15T11:45:05.177Z,8.27
2022-11-15T11:47:39.180Z,8.73
2022-11-15T11:50:13.894Z,8.63
2022-11-15T11:52:47.203Z,11.67
2022-11-15T11:55:17.921Z,11.07
2022-11-15T11:57:50.781Z,11.60
2022-11-15T12:00:21.588Z,7.27
2022-11-15T12:02:56.871Z,9.23
2022-11-15T12:05:39.548Z,12.17
2022-11-15T12:08:25.543Z,9.77
2022-11-15T12:10:59.733Z,9.10
2022-11-15T12:13:29.089Z,9.20
2022-11-15T12:16:06.130Z,10.00
2022-11-15T12:18:37.803Z,20.70
2022-11-15T12:21:09.992Z,12.47
2022-11-15T12:23:44.227Z,12.90
2022-11-15T12:26:18.760Z,10.47
2022-11-15T12:29:06.499Z,10.47
2022-11-15T12:31:39.592Z,7.40
2022-11-15T12:34:18.372Z,5.47
2022-11-15T12:36:47.191Z,8.10
2022-11-15T12:39:18.283Z,8.03
2022-11-15T12:42:22.187Z,6.10
2022-11-15T12:45:01.002Z,8.57
2022-11-15T12:47:29.618Z,10.87
2022-11-15T12:49:58.240Z,11.40
2022-11-15T12:52:26.880Z,9.00
2022-11-15T12:55:02.871Z,7.57
2022-11-15T12:57:43.266Z,8.57
2022-11-15T13:00:45.784Z,12.70
2022-11-15T13:03:26.034Z,10.97
2022-11-15T13:06:04.190Z,12.37
2022-11-15T13:08:49.301Z,11.77
2022-11-15T13:11:56.403Z,12.33
2022-11-15T13:14:42.436Z,9.10
2022-11-15T13:17:41.735Z,10.03
2022-11-15T13:20:23.791Z,11.60
2022-11-15T13:22:53.234Z,12.30
2022-11-15T13:25:30.055Z,9.73
2022-11-15T13:28:05.075Z,11.80
2022-11-15T13:30:36.374Z,16.63
2022-11-15T13:33:10.830Z,11.40
2022-11-15T13:35:41.805Z,10.70
2022-11-15T13:38:20.499Z,9.73
2022-11-15T13:40:49.236Z,8.90
2022-11-15T13:43:33.526Z,8.60
2022-11-15T13:46:13.143Z,10.47
2022-11-15T13:48:42.678Z,14.13
2022-11-15T13:51:18.145Z,11.80
2022-11-15T13:53:51.172Z,10.73
2022-11-15T13:56:20.786Z,7.20
2022-11-15T13:58:50.919Z,14.73
2022-11-15T14:01:21.649Z,6.40
2022-11-15T14:03:55.633Z,6.73
2022-11-15T14:06:26.070Z,10.70
2022-11-15T14:09:25.100Z,12.03
2022-11-15T14:11:55.708Z,7.17
2022-11-15T14:14:26.472Z,8.93
2022-11-15T14:16:56.409Z,10.03
2022-11-15T14:19:39.944Z,6.60
2022-11-15T14:22:18.036Z,8.80
2022-11-15T14:24:48.405Z,15.17
2022-11-15T14:27:27.738Z,6.60
2022-11-15T14:29:57.718Z,6.83
2022-11-15T14:32:28.352Z,15.23
2022-11-15T14:34:59.180Z,9.87
2022-11-15T14:37:29.565Z,7.67
2022-11-15T14:39:58.205Z,6.93
2022-11-15T14:42:27.195Z,6.90
2022-11-15T14:44:57.219Z,12.03
2022-11-15T14:47:25.831Z,6.60
2022-11-15T14:49:54.438Z,10.60
2022-11-15T14:52:32.160Z,8.30
2022-11-15T14:55:02.261Z,13.13
2022-11-15T14:57:31.475Z,6.50
2022-11-15T15:00:01.538Z,12.50
2022-11-15T15:02:30.176Z,16.67
2022-11-15T15:05:02.038Z,6.23
2022-11-15T15:07:30.922Z,9.60
2022-11-15T15:10:32.624Z,9.90
2022-11-15T15:12:48.264Z,13.50
2022-11-15T15:15:20.311Z,12.93
2022-11-15T15:17:49.176Z,11.90
2022-11-15T15:20:18.285Z,15.00
2022-11-15T15:22:47.069Z,13.70
2022-11-15T15:25:27.930Z,9.97
2022-11-15T15:27:57.114Z,12.17
2022-11-15T15:30:28.611Z,9.30
2022-11-15T15:32:57.339Z,21.90
2022-11-15T15:35:31.114Z,12.97
2022-11-15T15:38:00.093Z,11.07
2022-11-15T15:40:30.516Z,13.40
2022-11-15T15:42:59.771Z,13.70
2022-11-15T15:45:30.598Z,10.80
2022-11-15T15:47:59.288Z,13.40
2022-11-15T15:50:29.436Z,11.67
2022-11-15T15:52:59.393Z,17.50
2022-11-15T15:55:28.595Z,11.60
2022-11-15T15:57:57.381Z,17.37
2022-11-15T16:00:27.313Z,17.07
2022-11-15T16:02:57.493Z,15.20
2022-11-15T16:05:26.455Z,14.40
2022-11-15T16:07:55.103Z,19.23
2022-11-15T16:10:26.784Z,16.53
2022-11-15T16:12:56.186Z,15.80
2022-11-15T16:15:26.159Z,19.63
2022-11-15T16:17:57.421Z,14.40
2022-11-15T16:20:33.225Z,14.67
2022-11-15T16:23:07.618Z,15.60
2022-11-15T16:25:43.320Z,12.67
2022-11-15T16:28:20.233Z,16.23
2022-11-15T16:30:55.384Z,12.77
2022-11-15T16:33:26.770Z,11.00
2022-11-15T16:35:55.387Z,22.73
2022-11-15T16:38:24.009Z,21.03
2022-11-15T16:40:52.710Z,20.77
2022-11-15T16:43:21.353Z,15.00
2022-11-15T16:45:50.726Z,14.27
2022-11-15T16:48:23.672Z,13.80
2022-11-15T16:50:56.358Z,14.83
2022-11-15T16:53:25.309Z,17.67
2022-11-15T16:55:54.085Z,13.90
2022-11-15T16:58:22.857Z,11.63
2022-11-15T17:00:53.034Z,13.30
2022-11-15T17:03:22.326Z,15.07
2022-11-15T17:05:51.050Z,12.27
2022-11-15T17:08:22.516Z,15.20
2022-11-15T17:10:51.182Z,16.00
2022-11-15T17:13:19.814Z,15.33
2022-11-15T17:15:48.495Z,15.87
2022-11-15T17:18:17.092Z,17.10
2022-11-15T17:20:45.709Z,14.73
2022-11-15T17:23:15.332Z,22.23
2022-11-15T17:25:45.636Z,18.30
2022-11-15T17:28:14.253Z,20.47
2022-11-15T17:30:44.085Z,15.40
2022-11-15T17:33:12.680Z,15.83
2022-11-15T17:35:41.354Z,20.30
2022-11-15T17:38:09.977Z,14.70
2022-11-15T17:40:38.647Z,14.77
2022-11-15T17:43:08.750Z,16.10
2022-11-15T17:45:41.372Z,14.50
2022-11-15T17:48:09.992Z,16.80
2022-11-15T17:50:39.624Z,13.33
2022-11-15T19:44:58.648Z,21.93
2022-11-15T19:47:28.431Z,18.23
2022-11-15T19:49:57.087Z,27.60
2022-11-15T19:52:25.787Z,20.60
2022-11-15T19:54:54.510Z,17.80
2022-11-15T19:57:23.187Z,20.50
2022-11-15T19:59:51.903Z,19.50
2022-11-15T20:02:21.968Z,24.10
2022-11-15T20:04:50.681Z,24.27
2022-11-15T20:07:19.534Z,24.63
2022-11-15T20:09:48.207Z,23.13
2022-11-15T20:12:16.910Z,22.03
2022-11-15T20:14:45.954Z,21.27
2022-11-15T20:17:14.728Z,23.30
2022-11-15T20:19:44.741Z,23.37
2022-11-15T20:22:13.415Z,21.97
2022-11-15T20:24:42.060Z,25.13
2022-11-15T20:27:10.782Z,22.67
2022-11-15T20:29:43.771Z,24.40
2022-11-15T20:32:13.549Z,20.63
2022-11-15T20:34:42.194Z,20.20
2022-11-15T20:37:12.311Z,17.47
2022-11-15T20:39:40.956Z,22.13
2022-11-15T20:42:09.590Z,14.87
2022-11-15T20:44:38.282Z,20.87
2022-11-15T20:47:07.166Z,18.00
2022-11-15T20:49:35.773Z,20.13
2022-11-15T20:52:04.608Z,21.00
2022-11-15T20:54:34.604Z,17.27
2022-11-15T20:57:03.237Z,21.73
2022-11-15T20:59:31.870Z,15.10
2022-11-15T21:02:00.654Z,25.00
2022-11-15T21:04:29.670Z,16.80
2022-11-15T21:06:59.049Z,20.37
2022-11-15T21:09:45.185Z,16.10
2022-11-15T21:12:15.301Z,21.70
2022-11-15T21:14:45.044Z,18.77
2022-11-15T21:17:13.708Z,18.63
2022-11-15T21:19:42.746Z,16.50
2022-11-15T21:22:14.028Z,17.57
2022-11-15T21:24:42.937Z,14.07
2022-11-15T21:27:11.580Z,19.57
2022-11-15T21:29:45.444Z,18.20
2022-11-15T21:32:14.083Z,15.87
2022-11-15T21:34:42.762Z,14.33
2022-11-15T21:37:11.489Z,15.87
2022-11-15T21:39:40.201Z,18.60
2022-11-15T21:42:09.021Z,16.90
2022-11-15T21:44:37.666Z,21.37
2022-11-15T21:47:07.653Z,23.63
2022-11-15T21:49:36.261Z,16.40
2022-11-15T21:52:05.078Z,17.90
2022-11-15T21:54:33.684Z,15.80
2022-11-15T21:57:02.317Z,16.80
2022-11-15T21:59:30.989Z,19.57
2022-11-15T22:02:17.408Z,23.87
2022-11-15T22:04:47.458Z,17.77
2022-11-15T22:07:16.150Z,15.73
2022-11-15T22:09:44.864Z,18.50
2022-11-15T22:12:13.538Z,19.33
2022-11-15T22:14:42.150Z,22.20
2022-11-15T22:17:14.061Z,17.90
2022-11-15T22:19:52.143Z,18.60
2022-11-15T22:22:22.877Z,15.37
2022-11-15T22:24:51.638Z,14.73
2022-11-15T22:27:20.363Z,18.83
2022-11-15T22:29:49.156Z,19.30
2022-11-15T22:32:17.945Z,19.90
2022-11-15T22:34:47.309Z,17.27
2022-11-15T22:37:21.067Z,19.50
2022-11-15T22:39:52.219Z,18.30
2022-11-15T22:42:23.936Z,18.00
2022-11-15T22:44:52.987Z,14.67
2022-11-15T22:47:21.761Z,18.10
2022-11-15T22:49:51.221Z,20.10
2022-11-15T22:52:19.999Z,21.13
2022-11-15T22:54:48.912Z,19.53
2022-11-15T22:57:19.101Z,15.10
2022-11-15T22:59:47.825Z,18.35
2022-11-15T23:02:16.650Z,21.30
2022-11-15T23:04:46.169Z,18.10
2022-11-15T23:07:15.031Z,22.90
2022-11-15T23:09:47.765Z,19.93
2022-11-15T23:12:38.618Z,20.67
2022-11-15T23:15:08.001Z,20.93
2022-11-15T23:17:36.695Z,23.63
2022-11-15T23:20:29.095Z,22.03
2022-11-15T23:22:53.977Z,17.40
2022-11-15T23:25:22.727Z,18.37
2022-11-15T23:27:52.842Z,19.30
2022-11-15T23:30:47.498Z,19.37
2022-11-15T23:33:34.306Z,16.73
2022-11-15T23:36:03.032Z,19.10
2022-11-15T23:38:34.625Z,28.07
2022-11-15T23:41:03.698Z,18.80
2022-11-15T23:43:34.285Z,22.20
2022-11-15T23:46:03.110Z,22.30
2022-11-15T23:48:32.304Z,19.37
2022-11-15T23:51:01.364Z,21.23
2022-11-15T23:53:30.072Z,17.87
2022-11-15T23:56:02.073Z,19.10
2022-11-15T23:58:31.050Z,18.20
